sensor_id;sensor_type;location;lat;lon;timestamp;pressure;altitude;pressure_sealevel;temperature;humidity
33731;BME280;22931;48.636;9.000;2023-06-26T09:32:03;96003.03;;;30.26;37.70
33731;BME280;22931;48.636;9.000;2023-06-26T09:37:16;95996.69;;;30.29;37.70
33731;BME280;22931;48.636;9.000;2023-06-26T09:42:32;95998.81;;;30.34;36.90
33731;BME280;22931;48.636;9.000;2023-06-26T09:47:55;95989.69;;;30.46;36.41
33731;BME280;22931;48.636;9.000;2023-06-26T09:53:17;95992.59;;;30.66;37.00
33731;BME280;22931;48.636;9.000;2023-06-26T09:58:38;96002.84;;;30.86;36.75
33731;BME280;22931;48.636;9.000;2023-06-26T10:04:00;95997.38;;;31.19;36.40
33731;BME280;22931;48.636;9.000;2023-06-26T10:09:27;95989.19;;;31.19;36.09
33731;BME280;22931;48.636;9.000;2023-06-26T10:15:19;95999.72;;;31.26;36.51
33731;BME280;22931;48.636;9.000;2023-06-26T10:20:46;95994.19;;;31.35;35.69
33731;BME280;22931;48.636;9.000;2023-06-26T10:26:08;96001.63;;;31.34;36.22
33731;BME280;22931;48.636;9.000;2023-06-26T10:37:06;96016.59;;;31.30;35.55
33731;BME280;22931;48.636;9.000;2023-06-26T10:42:36;96024.59;;;31.33;35.86
33731;BME280;22931;48.636;9.000;2023-06-26T10:48:14;96037.91;;;31.31;36.08
33731;BME280;22931;48.636;9.000;2023-06-26T10:54:00;96041.94;;;31.36;36.04
33731;BME280;22931;48.636;9.000;2023-06-26T10:59:28;96044.44;;;31.25;36.05
33731;BME280;22931;48.636;9.000;2023-06-26T11:05:37;96045.13;;;31.20;36.26
33731;BME280;22931;48.636;9.000;2023-06-26T11:11:54;96039.72;;;31.11;36.65
33731;BME280;22931;48.636;9.000;2023-06-26T11:17:10;96046.69;;;31.12;36.59
33731;BME280;22931;48.636;9.000;2023-06-26T11:22:56;96034.22;;;31.20;35.89
33731;BME280;22931;48.636;9.000;2023-06-26T11:28:47;96043.63;;;31.33;36.70
33731;BME280;22931;48.636;9.000;2023-06-26T11:51:00;96059.84;;;31.52;35.42
33731;BME280;22931;48.636;9.000;2023-06-26T11:56:23;96069.38;;;31.47;35.91
33731;BME280;22931;48.636;9.000;2023-06-26T12:01:47;96063.06;;;31.41;36.21
33731;BME280;22931;48.636;9.000;2023-06-26T12:07:10;96068.59;;;31.32;36.14
33731;BME280;22931;48.636;9.000;2023-06-26T12:12:23;96073.56;;;31.33;36.32
33731;BME280;22931;48.636;9.000;2023-06-26T12:17:52;96076.84;;;31.38;36.78
33731;BME280;22931;48.636;9.000;2023-06-26T12:23:19;96070.84;;;31.33;36.46
33731;BME280;22931;48.636;9.000;2023-06-26T12:29:02;96075.53;;;31.33;36.29
33731;BME280;22931;48.636;9.000;2023-06-26T12:34:31;96063.44;;;31.34;36.85
33731;BME280;22931;48.636;9.000;2023-06-26T12:39:47;96071.47;;;31.52;36.34
33731;BME280;22931;48.636;9.000;2023-06-26T12:45:10;96067.28;;;31.42;36.87
33731;BME280;22931;48.636;9.000;2023-06-26T12:56:40;96063.94;;;31.47;36.82
33731;BME280;22931;48.636;9.000;2023-06-26T13:02:07;96072.09;;;31.47;37.34
33731;BME280;22931;48.636;9.000;2023-06-26T13:07:56;96058.59;;;31.53;36.75
33731;BME280;22931;48.636;9.000;2023-06-26T13:13:10;96066.66;;;31.47;36.70
33731;BME280;22931;48.636;9.000;2023-06-26T13:18:57;96070.25;;;31.53;36.76
33731;BME280;22931;48.636;9.000;2023-06-26T13:24:41;96065.72;;;31.50;36.46
33731;BME280;22931;48.636;9.000;2023-06-26T13:30:00;96058.69;;;31.44;37.00
33731;BME280;22931;48.636;9.000;2023-06-26T14:22:54;96059.78;;;31.37;36.01
33731;BME280;22931;48.636;9.000;2023-06-26T14:39:24;96077.41;;;31.27;35.78
33731;BME280;22931;48.636;9.000;2023-06-26T14:45:15;96087.53;;;31.26;35.35
33731;BME280;22931;48.636;9.000;2023-06-26T14:50:37;96089.28;;;31.15;34.70
33731;BME280;22931;48.636;9.000;2023-06-26T15:07:21;96090.72;;;30.68;35.16
33731;BME280;22931;48.636;9.000;2023-06-26T15:12:39;96084.72;;;30.55;35.34
33731;BME280;22931;48.636;9.000;2023-06-26T15:18:06;96089.03;;;30.38;35.44
33731;BME280;22931;48.636;9.000;2023-06-26T15:23:53;96084.19;;;30.33;35.38
33731;BME280;22931;48.636;9.000;2023-06-26T16:48:02;96085.69;;;28.62;36.08
33731;BME280;22931;48.636;9.000;2023-06-26T16:59:59;96096.28;;;28.47;34.83
33731;BME280;22931;48.636;9.000;2023-06-26T20:03:05;96291.41;;;24.42;36.99
33731;BME280;22931;48.636;9.000;2023-06-26T20:08:27;96291.72;;;24.24;36.51
33731;BME280;22931;48.636;9.000;2023-06-26T20:13:48;96296.22;;;24.11;36.83
33731;BME280;22931;48.636;9.000;2023-06-26T20:25:28;96320.00;;;23.89;36.64
33731;BME280;22931;48.636;9.000;2023-06-26T20:30:48;96310.41;;;23.88;37.17
33731;BME280;22931;48.636;9.000;2023-06-26T20:36:25;96323.53;;;23.83;37.43
33731;BME280;22931;48.636;9.000;2023-06-26T20:47:58;96338.09;;;23.62;37.89
33731;BME280;22931;48.636;9.000;2023-06-26T21:17:46;96349.84;;;23.15;38.01
33731;BME280;22931;48.636;9.000;2023-06-26T21:22:58;96352.63;;;23.08;38.33
33731;BME280;22931;48.636;9.000;2023-06-26T21:28:11;96369.19;;;23.02;38.39
33731;BME280;22931;48.636;9.000;2023-06-26T21:33:42;96368.38;;;23.06;38.19
33731;BME280;22931;48.636;9.000;2023-06-26T21:39:15;96373.84;;;22.98;38.72
33731;BME280;22931;48.636;9.000;2023-06-26T21:44:50;96373.59;;;22.89;38.65
33731;BME280;22931;48.636;9.000;2023-06-26T21:50:11;96379.34;;;22.88;39.17
33731;BME280;22931;48.636;9.000;2023-06-26T21:55:26;96384.78;;;22.81;38.88
33731;BME280;22931;48.636;9.000;2023-06-26T22:00:52;96380.63;;;22.76;39.35
33731;BME280;22931;48.636;9.000;2023-06-26T22:06:23;96389.53;;;22.66;39.31
33731;BME280;22931;48.636;9.000;2023-06-26T22:12:08;96385.75;;;22.60;39.16
33731;BME280;22931;48.636;9.000;2023-06-26T22:17:52;96390.38;;;22.56;39.99
33731;BME280;22931;48.636;9.000;2023-06-26T22:23:11;96387.06;;;22.45;39.57
33731;BME280;22931;48.636;9.000;2023-06-26T22:28:42;96391.28;;;22.46;39.78
